Time;durP1;ratioP1;P1;durP2;ratioP2;P2;SDS_P1;SDS_P2;PMS_P1;PMS_P2;Temp;Humidity;BMP_temperature;BMP_pressure;BME280_temperature;BME280_humidity;BME280_pressure;Samples;Min_cycle;Max_cycle;Signal;HPM_P1;HPM_P2
2021/12/16 00:01:48;;;;;;;6.22;2.35;;;26.10;93.70;;;;;;5143875;27;20402;-84
2021/12/16 00:10:24;;;;;;;6.03;2.30;;;26.50;93.20;;;;;;5145082;27;20388;-84
2021/12/16 00:31:54;;;;;;;4.50;2.10;;;29.50;75.70;;;;;;5148651;27;20481;-90
2021/12/16 00:34:29;;;;;;;5.05;2.30;;;29.80;75.80;;;;;;5130624;27;20385;-83
2021/12/16 00:37:03;;;;;;;6.43;2.70;;;30.00;76.40;;;;;;5137706;27;20437;-84
2021/12/16 00:39:49;;;;;;;5.50;2.30;;;30.00;78.70;;;;;;5144268;27;20931;-82
2021/12/16 00:45:44;;;;;;;7.93;2.80;;;29.80;70.30;;;;;;5138556;27;20871;-82
2021/12/16 00:48:10;;;;;;;6.63;2.70;;;29.20;70.80;;;;;;5130503;27;20397;-83
2021/12/16 00:56:17;;;;;;;6.75;2.30;;;27.60;76.20;;;;;;5138793;27;20359;-87
2021/12/16 00:58:52;;;;;;;4.03;2.00;;;27.40;76.10;;;;;;5117285;27;20775;-89
2021/12/16 01:01:33;;;;;;;5.75;2.17;;;27.20;76.20;;;;;;5136289;27;20821;-93
2021/12/16 01:34:47;;;;;;;7.45;4.03;;;28.50;72.20;;;;;;5135806;27;20469;-87
2021/12/16 01:48:43;;;;;;;9.40;4.57;;;27.40;78.40;;;;;;5139199;27;20438;-94
2021/12/16 01:50:55;;;;;;;8.65;4.53;;;27.40;78.90;;;;;;5138825;27;20432;-91
2021/12/16 01:56:17;;;;;;;11.15;4.50;;;27.80;80.20;;;;;;5101647;27;20357;-84
2021/12/16 01:58:49;;;;;;;10.20;4.28;;;28.50;76.90;;;;;;5141378;27;20400;-90
2021/12/16 02:01:29;;;;;;;13.37;5.13;;;28.90;74.20;;;;;;5142453;27;20365;-87
2021/12/16 02:04:13;;;;;;;13.60;5.10;;;28.60;75.30;;;;;;5125320;27;20373;-85
2021/12/16 02:07:06;;;;;;;12.35;4.70;;;28.30;77.80;;;;;;5141864;27;20357;-90
2021/12/16 02:09:41;;;;;;;10.95;4.82;;;28.00;78.50;;;;;;5140995;27;20401;-90
2021/12/16 02:34:44;;;;;;;9.68;4.18;;;32.40;61.50;;;;;;5146376;27;20418;-86
2021/12/16 02:37:20;;;;;;;11.43;4.60;;;32.70;61.60;;;;;;5120695;28;20389;-85
2021/12/16 02:39:47;;;;;;;10.07;4.20;;;32.80;60.30;;;;;;5120275;28;20426;-83
2021/12/16 02:42:32;;;;;;;10.83;4.50;;;33.40;60.00;;;;;;5139658;27;20373;-89
2021/12/16 02:50:31;;;;;;;11.52;4.63;;;34.00;56.00;;;;;;5139743;27;20401;-84
2021/12/16 02:53:05;;;;;;;11.35;4.15;;;33.40;57.80;;;;;;5144462;27;20721;-85
2021/12/16 02:55:33;;;;;;;9.20;4.00;;;33.60;57.70;;;;;;5127820;27;20406;-84
2021/12/16 02:58:03;;;;;;;9.30;3.88;;;33.60;56.00;;;;;;5142692;27;20361;-86
2021/12/16 03:00:41;;;;;;;12.10;4.22;;;33.80;56.10;;;;;;5145752;27;20836;-87
2021/12/16 03:03:11;;;;;;;12.02;4.10;;;33.70;58.30;;;;;;5148286;27;20444;-83
2021/12/16 03:05:45;;;;;;;12.77;4.22;;;34.00;56.00;;;;;;5129462;27;20384;-84
2021/12/16 03:08:13;;;;;;;10.73;4.10;;;33.30;56.10;;;;;;5146610;27;20345;-85
2021/12/16 03:11:03;;;;;;;10.43;3.80;;;32.20;57.70;;;;;;5145512;27;20483;-83
2021/12/16 03:13:39;;;;;;;10.85;4.13;;;31.80;58.00;;;;;;5146558;27;20361;-84
2021/12/16 03:16:52;;;;;;;10.20;4.30;;;31.80;59.60;;;;;;5153990;27;20373;-83
2021/12/16 03:19:25;;;;;;;11.80;4.47;;;31.20;60.70;;;;;;5149844;27;20369;-84
2021/12/16 03:22:01;;;;;;;10.77;4.20;;;30.20;63.70;;;;;;5154973;27;20394;-87
2021/12/16 03:25:03;;;;;;;11.05;4.13;;;29.70;66.00;;;;;;5147193;27;20369;-89
2021/12/16 03:27:47;;;;;;;11.35;4.15;;;29.60;66.40;;;;;;5146064;27;20432;-94
2021/12/16 03:38:40;;;;;;;11.45;4.20;;;30.80;66.40;;;;;;5145236;27;20413;-84
2021/12/16 03:41:08;;;;;;;13.77;4.13;;;31.90;61.30;;;;;;5140079;27;20377;-84
2021/12/16 03:43:37;;;;;;;12.95;3.92;;;32.40;60.10;;;;;;5142089;27;20393;-87
2021/12/16 03:49:09;;;;;;;11.10;3.92;;;32.40;59.10;;;;;;5130565;27;20370;-83
2021/12/16 03:51:42;;;;;;;13.68;4.03;;;32.60;57.70;;;;;;5119112;28;20385;-85
2021/12/16 03:54:41;;;;;;;10.20;3.83;;;33.10;58.00;;;;;;5117524;28;20363;-92
2021/12/16 03:57:11;;;;;;;11.38;3.90;;;33.20;57.10;;;;;;5114019;28;20986;-87
2021/12/16 03:59:39;;;;;;;13.18;4.18;;;32.40;57.60;;;;;;5117188;27;20371;-84
2021/12/16 04:02:19;;;;;;;12.05;3.83;;;31.50;59.60;;;;;;5117341;28;20851;-83
2021/12/16 04:04:51;;;;;;;11.80;3.80;;;31.40;61.60;;;;;;5116932;28;20434;-90
2021/12/16 04:07:21;;;;;;;10.98;3.70;;;31.00;62.20;;;;;;5135439;27;20373;-83
2021/12/16 04:09:50;;;;;;;16.07;4.10;;;30.60;62.00;;;;;;5136255;27;20389;-85
2021/12/16 04:12:20;;;;;;;15.32;4.20;;;29.80;65.10;;;;;;5136416;27;20368;-88
2021/12/16 04:14:51;;;;;;;13.38;3.50;;;29.10;66.60;;;;;;5137610;27;20883;-84
2021/12/16 04:17:22;;;;;;;12.30;3.92;;;29.70;65.90;;;;;;5136363;27;20369;-83
2021/12/16 04:19:50;;;;;;;12.15;3.72;;;30.30;64.60;;;;;;5135535;27;20385;-93
2021/12/16 04:22:27;;;;;;;11.60;3.72;;;30.30;63.00;;;;;;5116977;27;20394;-84
2021/12/16 04:24:54;;;;;;;10.10;3.35;;;30.90;63.40;;;;;;5134109;27;20405;-85
2021/12/16 04:27:22;;;;;;;13.25;3.70;;;31.40;60.60;;;;;;5134405;27;20397;-84
2021/12/16 04:29:49;;;;;;;12.73;3.75;;;31.50;59.40;;;;;;5135320;27;20401;-87
2021/12/16 04:32:16;;;;;;;14.95;3.83;;;31.50;59.00;;;;;;5137134;27;20369;-91
2021/12/16 04:34:44;;;;;;;13.88;3.78;;;31.70;58.80;;;;;;5135664;27;20365;-82
2021/12/16 04:37:13;;;;;;;11.55;3.90;;;31.50;59.60;;;;;;5135081;27;20376;-86
2021/12/16 04:39:41;;;;;;;18.50;4.00;;;30.60;59.60;;;;;;5136462;27;20381;-82
2021/12/16 04:42:10;;;;;;;12.50;3.50;;;29.60;62.10;;;;;;5141252;27;20384;-82
2021/12/16 04:44:39;;;;;;;11.20;3.70;;;29.70;63.80;;;;;;5137691;27;20365;-83
2021/12/16 04:47:07;;;;;;;15.60;3.97;;;29.30;63.70;;;;;;5135371;27;20373;-86
2021/12/16 04:49:35;;;;;;;15.43;3.95;;;28.70;64.50;;;;;;5134370;27;20401;-87
2021/12/16 04:52:07;;;;;;;13.75;3.50;;;28.00;66.50;;;;;;5133617;27;20372;-85
2021/12/16 04:54:34;;;;;;;12.68;3.90;;;27.50;68.60;;;;;;5133230;27;20467;-84
2021/12/16 04:57:03;;;;;;;15.73;3.47;;;27.20;71.00;;;;;;5133349;27;20384;-85
2021/12/16 04:59:32;;;;;;;14.32;3.40;;;27.00;71.10;;;;;;5133150;27;20365;-84
2021/12/16 05:02:07;;;;;;;12.70;3.55;;;26.70;72.20;;;;;;5129225;27;20772;-89
2021/12/16 05:04:35;;;;;;;13.02;3.50;;;26.50;72.60;;;;;;5118733;27;20740;-92
2021/12/16 05:07:03;;;;;;;12.90;3.50;;;26.10;74.40;;;;;;5136319;27;20370;-84
2021/12/16 05:12:20;;;;;;;12.32;3.17;;;25.30;78.30;;;;;;5113779;28;20358;-91
2021/12/16 05:14:49;;;;;;;14.38;3.25;;;25.00;80.20;;;;;;5114742;28;20466;-84
2021/12/16 05:17:35;;;;;;;13.60;3.53;;;24.80;81.50;;;;;;5116998;27;20417;-82
2021/12/16 05:20:07;;;;;;;14.90;3.38;;;24.60;82.80;;;;;;5121623;27;20365;-83
2021/12/16 05:26:16;;;;;;;13.48;3.47;;;24.60;84.20;;;;;;5120638;27;20379;-84
2021/12/16 05:28:07;;;;;;;11.93;3.40;;;24.60;83.70;;;;;;5124873;27;20460;-86
2021/12/16 05:30:36;;;;;;;14.15;3.85;;;24.40;85.30;;;;;;5131008;27;20561;-82
2021/12/16 05:33:06;;;;;;;15.53;3.70;;;24.50;86.40;;;;;;5135573;27;20373;-95
2021/12/16 05:35:34;;;;;;;15.18;3.88;;;24.60;86.10;;;;;;5115013;28;20501;-93
2021/12/16 05:38:04;;;;;;;12.98;3.60;;;24.60;86.10;;;;;;5101546;28;20369;-93
2021/12/16 05:40:33;;;;;;;10.95;3.20;;;24.70;86.10;;;;;;5117613;28;20421;-92
2021/12/16 05:43:06;;;;;;;11.77;3.40;;;24.70;86.00;;;;;;5116932;28;20435;-93
2021/12/16 05:45:34;;;;;;;15.82;3.38;;;24.80;86.20;;;;;;5113594;28;20493;-83
2021/12/16 05:48:03;;;;;;;12.20;3.17;;;25.00;85.00;;;;;;5130262;27;20376;-85
2021/12/16 05:50:33;;;;;;;11.00;3.13;;;24.90;84.80;;;;;;5135774;27;20393;-85
2021/12/16 05:53:00;;;;;;;13.02;3.10;;;24.90;84.50;;;;;;5125760;27;20390;-86
2021/12/16 05:55:28;;;;;;;9.48;3.10;;;24.90;84.80;;;;;;5124802;28;20382;-87
2021/12/16 05:57:56;;;;;;;12.10;2.90;;;24.80;84.80;;;;;;5110117;28;20382;-89
2021/12/16 06:00:34;;;;;;;12.93;3.20;;;24.50;85.70;;;;;;5110749;28;20367;-87
2021/12/16 06:03:02;;;;;;;14.10;3.15;;;24.40;86.90;;;;;;5110022;28;20552;-80
2021/12/16 06:05:29;;;;;;;12.45;3.50;;;24.30;87.50;;;;;;5110387;28;20407;-89
2021/12/16 06:07:57;;;;;;;14.65;3.17;;;24.20;87.70;;;;;;5111417;28;20390;-91
2021/12/16 06:12:52;;;;;;;16.38;3.30;;;23.80;89.60;;;;;;5111659;28;20406;-88
2021/12/16 06:26:35;;;;;;;12.82;3.40;;;23.10;91.60;;;;;;5110841;28;20370;-85
2021/12/16 06:29:04;;;;;;;12.90;3.60;;;23.00;92.40;;;;;;5108201;28;20390;-84
2021/12/16 06:31:34;;;;;;;13.95;3.47;;;22.90;93.10;;;;;;5106457;28;20502;-82
2021/12/16 06:34:02;;;;;;;14.48;3.65;;;22.80;93.50;;;;;;5110393;28;20406;-82
2021/12/16 06:36:29;;;;;;;14.27;3.40;;;22.80;93.50;;;;;;5126637;27;20929;-80
2021/12/16 06:38:56;;;;;;;12.05;3.25;;;22.70;93.50;;;;;;5130402;28;20425;-83
2021/12/16 06:41:23;;;;;;;12.38;3.35;;;22.70;94.10;;;;;;5130468;27;20877;-84
2021/12/16 06:43:53;;;;;;;15.82;3.55;;;22.70;93.80;;;;;;5130194;27;20417;-87
2021/12/16 06:46:30;;;;;;;13.02;3.15;;;22.60;94.00;;;;;;5131367;27;20725;-84
2021/12/16 06:48:59;;;;;;;13.20;3.33;;;22.50;94.50;;;;;;5130637;27;20889;-87
2021/12/16 06:51:38;;;;;;;15.25;3.72;;;22.40;94.90;;;;;;5129951;27;20377;-84
2021/12/16 06:54:10;;;;;;;13.13;3.40;;;22.40;95.00;;;;;;5130011;27;20373;-86
2021/12/16 06:56:48;;;;;;;10.35;3.42;;;22.20;95.40;;;;;;5130445;27;20401;-85
2021/12/16 06:59:25;;;;;;;13.60;3.30;;;22.10;95.70;;;;;;5130382;28;20444;-85
2021/12/16 07:02:05;;;;;;;13.35;3.40;;;22.00;96.20;;;;;;5130824;28;20929;-86
2021/12/16 07:04:33;;;;;;;12.90;3.40;;;21.90;96.80;;;;;;5126986;27;20385;-82
2021/12/16 07:07:00;;;;;;;12.88;3.20;;;21.70;97.10;;;;;;5130046;27;20396;-83
2021/12/16 07:09:28;;;;;;;12.30;3.10;;;21.60;97.90;;;;;;5129957;27;20395;-84
2021/12/16 07:11:58;;;;;;;13.23;3.53;;;21.60;97.80;;;;;;5129953;27;20497;-82
2021/12/16 07:14:39;;;;;;;11.32;3.20;;;21.60;98.20;;;;;;5129779;27;20361;-84
2021/12/16 07:17:12;;;;;;;11.38;3.15;;;21.60;98.40;;;;;;5130889;27;20410;-90
2021/12/16 07:19:41;;;;;;;14.13;3.45;;;21.60;98.20;;;;;;5113587;28;20369;-91
2021/12/16 07:22:11;;;;;;;11.75;3.03;;;21.50;98.50;;;;;;5115052;27;20472;-89
2021/12/16 07:24:38;;;;;;;13.25;3.45;;;21.40;98.40;;;;;;5152131;27;20367;-91
2021/12/16 07:27:07;;;;;;;11.47;3.20;;;21.30;98.60;;;;;;5113027;28;20391;-88
2021/12/16 07:29:34;;;;;;;14.48;3.47;;;21.20;98.90;;;;;;5129885;27;20397;-90
2021/12/16 07:32:02;;;;;;;12.40;3.33;;;21.20;99.30;;;;;;5112595;28;20473;-91
2021/12/16 07:34:29;;;;;;;11.20;3.20;;;21.10;99.50;;;;;;5139009;27;20360;-81
2021/12/16 07:36:59;;;;;;;13.27;3.40;;;21.10;99.50;;;;;;5151113;27;20466;-83
2021/12/16 07:39:37;;;;;;;13.35;3.42;;;21.10;99.60;;;;;;5143349;27;20886;-83
2021/12/16 07:42:06;;;;;;;13.25;3.35;;;21.10;99.70;;;;;;5133992;27;20720;-80
2021/12/16 07:44:34;;;;;;;13.07;3.40;;;21.00;99.70;;;;;;5132987;27;20388;-80
2021/12/16 07:47:06;;;;;;;9.85;3.30;;;21.00;99.60;;;;;;5133374;27;20538;-88
2021/12/16 07:49:42;;;;;;;10.73;3.03;;;21.00;99.60;;;;;;5133795;27;20488;-80
2021/12/16 07:52:13;;;;;;;13.20;3.25;;;21.00;99.20;;;;;;5133807;27;20381;-83
2021/12/16 07:54:40;;;;;;;10.43;3.20;;;21.00;99.30;;;;;;5129734;27;20420;-87
2021/12/16 07:57:07;;;;;;;13.70;3.58;;;21.00;99.80;;;;;;5135840;27;20373;-86
2021/12/16 07:59:36;;;;;;;14.40;3.50;;;21.00;99.40;;;;;;5136069;27;20404;-88
2021/12/16 08:02:05;;;;;;;12.68;3.03;;;21.10;99.20;;;;;;5139627;27;21006;-84
2021/12/16 08:04:39;;;;;;;10.18;3.15;;;21.10;99.00;;;;;;5137746;27;20388;-79
2021/12/16 08:07:08;;;;;;;12.75;3.33;;;21.10;99.10;;;;;;5141472;27;20459;-80
2021/12/16 08:09:41;;;;;;;8.52;3.00;;;21.00;99.20;;;;;;5140224;27;20397;-81
2021/12/16 08:12:13;;;;;;;11.85;3.40;;;21.00;99.00;;;;;;5134460;27;20384;-84
2021/12/16 08:14:42;;;;;;;15.98;3.35;;;21.00;99.30;;;;;;5134155;27;20379;-84
2021/12/16 08:17:09;;;;;;;11.80;2.92;;;21.00;99.50;;;;;;5134881;27;20369;-82
2021/12/16 08:19:36;;;;;;;11.70;3.30;;;21.10;99.30;;;;;;5133264;27;20477;-82
2021/12/16 08:22:05;;;;;;;9.18;2.80;;;21.10;98.80;;;;;;5134144;27;20377;-79
2021/12/16 08:24:32;;;;;;;12.70;3.05;;;21.00;98.80;;;;;;5133909;27;20736;-82
2021/12/16 08:27:00;;;;;;;10.80;2.92;;;21.10;98.80;;;;;;5133379;27;20733;-86
2021/12/16 08:29:27;;;;;;;9.73;2.72;;;21.00;98.70;;;;;;5133264;27;20385;-82
2021/12/16 08:31:56;;;;;;;10.32;3.10;;;20.90;98.80;;;;;;5133670;27;20373;-80
2021/12/16 08:34:25;;;;;;;11.60;3.10;;;20.90;99.00;;;;;;5132837;27;21091;-83
2021/12/16 08:36:52;;;;;;;9.20;2.92;;;20.80;99.00;;;;;;5133276;27;20748;-80
2021/12/16 08:39:25;;;;;;;11.05;3.28;;;20.80;99.00;;;;;;5132117;27;20381;-84
2021/12/16 08:41:54;;;;;;;14.00;3.08;;;20.80;99.30;;;;;;5132295;27;20372;-85
2021/12/16 08:44:22;;;;;;;9.93;2.80;;;20.70;99.30;;;;;;5098589;27;20389;-86
2021/12/16 08:46:54;;;;;;;11.90;3.00;;;20.70;99.40;;;;;;5141752;27;20485;-85
2021/12/16 08:49:21;;;;;;;12.30;3.08;;;20.70;99.40;;;;;;5151775;27;20383;-81
2021/12/16 08:51:51;;;;;;;13.18;3.00;;;20.70;99.40;;;;;;5131801;27;20412;-83
2021/12/16 08:54:19;;;;;;;12.93;3.22;;;20.70;99.70;;;;;;5114247;27;20728;-82
2021/12/16 08:56:46;;;;;;;11.60;2.90;;;20.70;99.90;;;;;;5131670;27;20455;-84
2021/12/16 08:59:14;;;;;;;16.63;3.22;;;20.70;99.60;;;;;;5113386;27;20389;-86
2021/12/16 09:01:45;;;;;;;9.60;3.20;;;20.70;99.70;;;;;;5131734;27;20408;-83
2021/12/16 09:04:15;;;;;;;12.60;3.03;;;20.70;99.90;;;;;;5126140;27;20381;-87
2021/12/16 09:06:42;;;;;;;11.87;3.20;;;20.60;99.90;;;;;;5126273;27;20774;-85
2021/12/16 09:09:09;;;;;;;8.60;2.70;;;20.60;99.90;;;;;;5132482;27;20385;-82
2021/12/16 09:11:43;;;;;;;11.07;3.25;;;20.60;99.90;;;;;;5131585;27;20384;-89
2021/12/16 09:14:11;;;;;;;12.07;3.10;;;20.60;99.90;;;;;;5132670;27;20372;-81
2021/12/16 09:16:40;;;;;;;12.37;3.17;;;20.60;99.90;;;;;;5132308;27;20385;-86
2021/12/16 09:19:07;;;;;;;15.38;3.58;;;20.60;99.90;;;;;;5131824;27;20383;-81
2021/12/16 09:21:36;;;;;;;18.77;4.63;;;20.60;99.90;;;;;;5131944;27;20384;-85
2021/12/16 09:24:07;;;;;;;12.88;3.03;;;20.60;99.90;;;;;;5132994;27;20365;-82
2021/12/16 09:26:34;;;;;;;15.73;3.33;;;20.60;99.90;;;;;;5133693;27;20373;-80
2021/12/16 09:29:03;;;;;;;11.50;2.97;;;20.70;99.90;;;;;;5135693;27;20376;-83
2021/12/16 09:31:31;;;;;;;11.05;2.90;;;20.70;99.90;;;;;;5120161;27;20741;-82
2021/12/16 09:34:07;;;;;;;12.35;3.40;;;20.70;99.90;;;;;;5131682;27;20388;-86
2021/12/16 09:36:39;;;;;;;10.18;3.05;;;20.60;99.90;;;;;;5132376;27;20433;-86
2021/12/16 09:39:15;;;;;;;10.23;2.88;;;20.50;99.90;;;;;;5112099;28;20410;-81
2021/12/16 09:41:46;;;;;;;8.53;2.80;;;20.50;99.90;;;;;;5128986;27;20381;-83
2021/12/16 09:44:14;;;;;;;9.02;3.05;;;20.50;99.90;;;;;;5132387;27;20389;-80
2021/12/16 09:46:48;;;;;;;10.38;3.20;;;20.50;99.90;;;;;;5131656;27;20373;-79
2021/12/16 09:49:16;;;;;;;9.18;2.95;;;20.40;99.90;;;;;;5118497;27;20397;-79
2021/12/16 09:51:46;;;;;;;11.10;2.78;;;20.30;99.90;;;;;;5112947;27;20422;-79
2021/12/16 09:54:24;;;;;;;8.85;3.08;;;20.30;99.90;;;;;;5130338;27;20384;-79
2021/12/16 09:56:52;;;;;;;12.70;3.15;;;20.30;99.90;;;;;;5130805;27;20361;-81
2021/12/16 09:59:21;;;;;;;9.52;2.97;;;20.30;99.90;;;;;;5130597;27;20384;-79
2021/12/16 10:01:51;;;;;;;13.52;3.20;;;20.30;99.90;;;;;;5130229;27;20422;-84
2021/12/16 10:04:25;;;;;;;13.63;3.10;;;20.30;99.90;;;;;;5130454;27;20377;-85
2021/12/16 10:06:56;;;;;;;11.40;3.00;;;20.20;99.90;;;;;;5131035;27;20369;-85
2021/12/16 10:09:24;;;;;;;9.30;2.92;;;20.30;99.90;;;;;;5130427;27;20392;-81
2021/12/16 10:11:52;;;;;;;10.30;3.13;;;20.20;99.90;;;;;;5130173;27;20933;-86
2021/12/16 10:19:43;;;;;;;8.77;2.85;;;20.20;99.90;;;;;;5110254;28;20370;-81
2021/12/16 10:22:40;;;;;;;13.02;3.10;;;20.10;99.90;;;;;;5124615;27;20441;-83
2021/12/16 10:25:29;;;;;;;9.55;3.00;;;20.00;99.90;;;;;;5130759;27;21233;-81
2021/12/16 10:27:56;;;;;;;9.57;2.90;;;20.00;99.90;;;;;;5130566;27;20826;-81
2021/12/16 10:30:25;;;;;;;8.70;3.63;;;19.90;99.90;;;;;;5130051;27;20400;-81
2021/12/16 10:32:54;;;;;;;11.57;3.40;;;19.70;99.90;;;;;;5130407;27;20465;-82
2021/12/16 10:35:29;;;;;;;9.65;3.10;;;19.80;99.90;;;;;;5129851;27;20745;-82
2021/12/16 10:38:00;;;;;;;8.07;3.00;;;19.80;99.90;;;;;;5129930;27;20385;-83
2021/12/16 10:40:51;;;;;;;10.30;2.80;;;19.80;99.90;;;;;;5131764;27;20488;-82
2021/12/16 10:43:40;;;;;;;8.52;2.90;;;19.70;99.90;;;;;;5124226;27;20800;-83
2021/12/16 10:46:15;;;;;;;9.23;2.80;;;19.70;99.90;;;;;;5130953;27;20755;-81
2021/12/16 10:48:44;;;;;;;9.77;3.05;;;19.70;99.90;;;;;;5092628;28;20464;-82
2021/12/16 10:51:24;;;;;;;7.88;2.95;;;19.60;99.90;;;;;;5125369;28;20392;-82
2021/12/16 10:54:04;;;;;;;7.40;2.90;;;19.70;99.90;;;;;;5131285;27;20381;-85
2021/12/16 10:57:05;;;;;;;9.15;2.80;;;19.70;99.90;;;;;;5130944;27;20868;-86
2021/12/16 10:59:31;;;;;;;10.15;3.00;;;19.60;99.90;;;;;;5081695;28;20395;-83
2021/12/16 11:02:10;;;;;;;10.32;3.00;;;19.50;99.90;;;;;;5119746;28;20381;-82
2021/12/16 11:04:42;;;;;;;6.97;2.80;;;19.60;99.90;;;;;;5130632;27;20373;-86
2021/12/16 11:07:09;;;;;;;8.85;3.17;;;19.60;99.90;;;;;;5130828;27;20377;-83
2021/12/16 11:09:59;;;;;;;9.77;3.20;;;19.50;99.90;;;;;;5129457;27;20462;-82
2021/12/16 11:12:29;;;;;;;17.05;3.55;;;19.50;99.90;;;;;;5121651;27;20399;-83
2021/12/16 11:15:10;;;;;;;19.73;3.60;;;19.50;99.90;;;;;;5134990;27;20376;-83
2021/12/16 11:17:49;;;;;;;18.55;4.20;;;19.50;99.90;;;;;;5134533;27;20377;-83
2021/12/16 11:20:35;;;;;;;23.63;4.40;;;19.50;99.90;;;;;;5134258;27;20393;-82
2021/12/16 11:23:37;;;;;;;17.17;4.13;;;19.50;99.90;;;;;;5134660;27;20404;-84
2021/12/16 11:26:09;;;;;;;15.82;3.60;;;19.50;99.90;;;;;;5129458;27;20411;-85
2021/12/16 11:28:39;;;;;;;13.93;3.40;;;19.50;99.90;;;;;;5135410;27;20377;-85
2021/12/16 11:31:09;;;;;;;7.95;2.53;;;19.50;99.90;;;;;;5136076;27;20479;-82
2021/12/16 11:33:47;;;;;;;10.75;2.90;;;19.50;99.90;;;;;;5148435;27;20371;-81
2021/12/16 11:36:26;;;;;;;11.23;3.30;;;19.40;99.90;;;;;;5155404;27;20642;-81
2021/12/16 11:39:13;;;;;;;9.60;2.65;;;19.40;99.90;;;;;;5134380;27;20388;-83
2021/12/16 11:42:03;;;;;;;7.75;3.00;;;19.40;99.90;;;;;;5114687;27;20864;-82
2021/12/16 11:44:33;;;;;;;9.07;2.90;;;19.30;99.90;;;;;;5116151;27;20381;-84
2021/12/16 11:47:05;;;;;;;10.23;3.00;;;19.30;99.90;;;;;;5134297;27;20385;-84
2021/12/16 11:49:37;;;;;;;11.02;2.95;;;19.30;99.90;;;;;;5144291;27;20807;-86
2021/12/16 11:52:35;;;;;;;14.40;2.90;;;19.20;99.90;;;;;;5128726;27;20804;-82
2021/12/16 11:55:11;;;;;;;10.98;3.00;;;19.20;99.90;;;;;;5134233;27;20357;-83
2021/12/16 11:57:49;;;;;;;16.33;3.20;;;19.20;99.90;;;;;;5133394;27;20778;-83
2021/12/16 12:00:25;;;;;;;31.50;3.80;;;19.10;99.90;;;;;;5125687;27;20409;-82
2021/12/16 12:03:01;;;;;;;15.18;3.50;;;19.10;99.90;;;;;;5129206;27;20430;-84
2021/12/16 12:05:42;;;;;;;17.35;3.70;;;19.10;99.90;;;;;;5130328;27;20373;-80
2021/12/16 12:08:20;;;;;;;12.13;3.33;;;19.10;99.90;;;;;;5131353;27;20377;-81
2021/12/16 12:10:49;;;;;;;11.95;3.53;;;19.00;99.90;;;;;;5128902;27;20495;-81
2021/12/16 12:13:33;;;;;;;11.48;4.15;;;19.00;99.90;;;;;;5129178;27;20468;-81
2021/12/16 12:16:06;;;;;;;10.48;3.60;;;19.00;99.90;;;;;;5128919;27;20381;-83
2021/12/16 12:18:59;;;;;;;12.30;3.40;;;18.90;99.90;;;;;;5128820;27;20438;-83
2021/12/16 12:21:44;;;;;;;12.43;3.20;;;18.90;99.90;;;;;;5128582;27;21828;-82
2021/12/16 12:24:19;;;;;;;11.20;3.17;;;18.90;99.90;;;;;;5127866;27;20385;-83
2021/12/16 12:26:54;;;;;;;10.63;2.85;;;18.90;99.90;;;;;;5130238;27;20388;-83
2021/12/16 12:29:29;;;;;;;10.45;3.10;;;18.90;99.90;;;;;;5129403;27;20400;-84
2021/12/16 12:31:58;;;;;;;11.20;3.08;;;18.90;99.90;;;;;;5128089;27;20391;-83
2021/12/16 12:34:26;;;;;;;8.95;2.97;;;19.00;99.90;;;;;;5129360;27;20434;-82
2021/12/16 12:37:02;;;;;;;10.95;2.67;;;19.00;99.90;;;;;;5132384;27;20385;-83
2021/12/16 12:39:35;;;;;;;9.43;2.80;;;19.00;99.90;;;;;;5141800;27;20823;-81
2021/12/16 12:42:03;;;;;;;12.07;3.03;;;19.00;99.90;;;;;;5143282;27;20365;-82
2021/12/16 12:44:30;;;;;;;8.07;2.80;;;19.00;99.90;;;;;;5144223;27;20403;-81
2021/12/16 12:47:02;;;;;;;10.20;2.90;;;19.00;99.90;;;;;;5138236;27;20373;-81
2021/12/16 12:49:30;;;;;;;9.85;2.90;;;19.00;99.90;;;;;;5132304;27;20411;-83
2021/12/16 12:52:09;;;;;;;12.32;3.00;;;19.00;99.90;;;;;;5134818;27;20481;-82
2021/12/16 12:54:38;;;;;;;9.18;2.65;;;19.00;99.90;;;;;;5134586;27;20713;-83
2021/12/16 12:57:28;;;;;;;7.22;2.58;;;19.00;99.90;;;;;;5133741;27;20762;-83
2021/12/16 12:59:57;;;;;;;9.77;2.80;;;19.10;99.90;;;;;;5132705;27;20446;-84
2021/12/16 13:02:29;;;;;;;11.55;2.90;;;19.10;99.90;;;;;;5133655;27;20404;-83
2021/12/16 13:04:59;;;;;;;10.38;3.13;;;19.10;99.90;;;;;;5132805;27;20798;-83
2021/12/16 13:07:52;;;;;;;10.43;3.08;;;19.10;99.90;;;;;;5127757;27;20421;-82
2021/12/16 13:10:35;;;;;;;8.93;3.05;;;19.10;99.90;;;;;;5124570;27;20440;-82
2021/12/16 13:16:40;;;;;;;12.15;3.40;;;19.00;99.90;;;;;;5100670;27;20409;-81
2021/12/16 13:28:48;;;;;;;10.43;3.20;;;18.70;99.90;;;;;;5132288;27;20372;-83
2021/12/16 13:31:59;;;;;;;9.48;3.08;;;18.70;99.90;;;;;;5141537;27;20408;-82
2021/12/16 13:34:34;;;;;;;11.17;3.00;;;18.70;99.90;;;;;;5131336;27;20404;-82
2021/12/16 13:37:23;;;;;;;9.30;2.90;;;18.70;99.90;;;;;;5131978;27;20381;-83
2021/12/16 13:39:57;;;;;;;10.82;3.33;;;18.60;99.90;;;;;;5122135;27;20373;-83
2021/12/16 13:42:24;;;;;;;12.13;3.35;;;18.60;99.90;;;;;;5132136;27;20416;-82
2021/12/16 13:45:00;;;;;;;11.18;3.67;;;18.60;99.90;;;;;;5132162;27;20381;-83
2021/12/16 14:05:20;;;;;;;12.20;4.38;;;18.40;99.90;;;;;;5131607;27;20897;-82
2021/12/16 14:07:57;;;;;;;13.30;3.90;;;18.30;99.90;;;;;;5130909;27;20376;-84
2021/12/16 14:10:49;;;;;;;12.13;4.32;;;18.30;99.90;;;;;;5131012;27;20401;-83
2021/12/16 14:14:08;;;;;;;14.43;4.20;;;18.20;99.90;;;;;;5131173;27;20469;-81
2021/12/16 14:39:55;;;;;;;13.30;4.05;;;18.20;99.90;;;;;;5131210;27;20392;-82
2021/12/16 14:42:42;;;;;;;13.10;4.13;;;18.10;99.90;;;;;;5131298;28;20400;-82
2021/12/16 14:45:27;;;;;;;14.82;4.45;;;18.10;99.90;;;;;;5128903;28;20423;-81
2021/12/16 14:50:35;;;;;;;16.77;4.38;;;18.10;99.90;;;;;;5136786;27;20424;-81
2021/12/16 14:53:14;;;;;;;11.45;4.40;;;18.10;99.90;;;;;;5135809;27;20391;-83
2021/12/16 14:55:41;;;;;;;12.52;4.50;;;18.10;99.90;;;;;;5134919;27;20369;-83
2021/12/16 14:58:08;;;;;;;13.38;4.45;;;18.10;99.90;;;;;;5134555;27;20381;-82
2021/12/16 15:00:49;;;;;;;12.10;4.30;;;18.10;99.90;;;;;;5134785;27;20373;-84
2021/12/16 15:03:41;;;;;;;12.32;4.03;;;18.00;99.90;;;;;;5131343;27;20416;-83
2021/12/16 15:06:26;;;;;;;17.27;4.53;;;18.10;99.90;;;;;;5134736;27;20867;-83
2021/12/16 15:11:55;;;;;;;11.10;3.83;;;18.10;99.90;;;;;;5134993;27;20741;-83
2021/12/16 15:14:51;;;;;;;10.70;4.00;;;18.10;99.90;;;;;;5134869;27;20377;-83
2021/12/16 15:45:31;;;;;;;15.80;4.10;;;18.20;99.90;;;;;;5133793;27;20375;-83
2021/12/16 15:48:01;;;;;;;13.13;4.10;;;18.10;99.90;;;;;;5134174;27;20741;-83
2021/12/16 15:50:38;;;;;;;11.43;4.03;;;18.10;99.90;;;;;;5133410;27;20449;-84
2021/12/16 15:53:30;;;;;;;14.63;3.85;;;18.10;99.90;;;;;;5134392;27;20380;-83
2021/12/16 15:56:08;;;;;;;12.90;3.85;;;18.20;99.90;;;;;;5118791;27;20379;-83
2021/12/16 15:59:05;;;;;;;13.63;3.90;;;18.10;99.90;;;;;;5133215;27;20377;-81
2021/12/16 16:01:42;;;;;;;14.25;3.75;;;18.10;99.90;;;;;;5133548;27;20381;-83
2021/12/16 16:04:22;;;;;;;14.63;3.90;;;18.20;99.90;;;;;;5111286;27;20471;-83
2021/12/16 16:06:54;;;;;;;12.52;3.83;;;18.20;99.90;;;;;;5131349;27;21222;-84
2021/12/16 16:09:21;;;;;;;19.80;4.30;;;18.20;99.90;;;;;;5133045;27;20720;-84
2021/12/16 16:11:52;;;;;;;16.48;3.90;;;18.20;99.90;;;;;;5133070;27;20385;-83
2021/12/16 16:14:21;;;;;;;12.98;3.88;;;18.10;99.90;;;;;;5133374;27;20456;-84
2021/12/16 16:16:56;;;;;;;18.63;4.25;;;18.20;99.90;;;;;;5133718;27;20403;-84
2021/12/16 16:19:49;;;;;;;13.25;4.10;;;18.20;99.90;;;;;;5133448;27;20380;-84
2021/12/16 16:22:17;;;;;;;16.55;4.15;;;18.20;99.90;;;;;;5130682;27;20782;-84
2021/12/16 16:24:48;;;;;;;17.60;4.10;;;18.10;99.90;;;;;;5132930;27;20426;-83
2021/12/16 16:27:35;;;;;;;15.40;4.10;;;18.10;99.90;;;;;;5133420;27;20413;-83
2021/12/16 16:30:07;;;;;;;14.93;4.53;;;18.10;99.90;;;;;;5131351;27;20397;-84
2021/12/16 16:33:10;;;;;;;14.18;4.63;;;18.20;99.90;;;;;;5132839;27;20480;-84
2021/12/16 16:35:45;;;;;;;18.40;4.93;;;18.20;99.90;;;;;;5133295;27;20613;-83
2021/12/16 16:38:17;;;;;;;13.80;3.90;;;18.20;99.90;;;;;;5133006;27;20467;-83
2021/12/16 16:40:47;;;;;;;15.95;3.70;;;18.20;99.90;;;;;;5133173;27;20365;-84
2021/12/16 16:43:20;;;;;;;13.43;3.88;;;18.20;99.90;;;;;;5133155;27;20377;-83
2021/12/16 16:45:51;;;;;;;15.82;3.70;;;18.20;99.90;;;;;;5131628;27;20408;-83
2021/12/16 16:51:12;;;;;;;15.27;4.00;;;18.20;99.90;;;;;;5132806;27;20906;-84
2021/12/16 16:54:02;;;;;;;12.87;3.60;;;18.10;99.90;;;;;;5132961;27;20400;-82
2021/12/16 16:56:40;;;;;;;12.63;3.70;;;18.20;99.90;;;;;;5112867;28;20466;-82
2021/12/16 16:59:10;;;;;;;12.02;3.90;;;18.20;99.90;;;;;;5132892;27;20868;-83
2021/12/16 17:01:38;;;;;;;12.85;4.10;;;18.20;99.90;;;;;;5132478;27;20388;-84
2021/12/16 17:04:08;;;;;;;15.18;4.15;;;18.20;99.90;;;;;;5133098;27;20961;-84
2021/12/16 17:06:35;;;;;;;15.45;4.50;;;18.20;99.90;;;;;;5132285;27;20381;-84